Other Surface Observations
Issued by NWS Missoula, MT

Home | Current Version | Previous Version | Text Only | Print | Product List | Glossary On
Versions: 1 2 3 4 5 6 7 8 9 10 11 12 13 14 15 16 17 18 19 20 21 22 23 24 25 26 27 28 29 30 31 32 33 34 35 36 37 38 39 40 41 42 43 44 45 46 47 48 49 50
000
SXUS55 KMSO 231023
OSOMSO
MONTANA AWOS SUMMARY
NATIONAL WEATHER SERVICE MISSOULA MT
423 AM MDT SAT AUG 23 2014

Montana AWOS Reports

ROUNDUP     |KRPX 231015Z AUTO 01012G18KT 15SM 14/12 A2986 RMK AO1 T01390117
LAUREL      |K6S8 231015Z AUTO 00000KT 4SM 16/14 A2992 RMK AO1 T01560139
MALTA       |KM75 231015Z AUTO 02008KT 40SM 15/11 A3003 RMK AO1 T01500111




USA.gov is the U.S. government's official web portal to all federal, state and local government web resources and services.